createdAt,value
2022-08-19T00:02:21.667Z,-20553.53
2022-08-19T00:04:53.443Z,-20550.66
2022-08-19T00:07:21.899Z,-20550.34
2022-08-19T00:09:49.631Z,-20551.25
2022-08-19T00:12:17.549Z,-20551.72
2022-08-19T00:14:45.591Z,-20552.03
2022-08-19T00:17:13.617Z,-20552.03
2022-08-19T00:19:42.777Z,-20551.41
2022-08-19T00:22:10.815Z,-20550.06
2022-08-19T00:24:39.378Z,-20548.09
2022-08-19T00:27:26.098Z,-20547.63
2022-08-19T00:29:54.726Z,-20546.72
2022-08-19T00:32:22.935Z,-20548.09
2022-08-19T00:34:54.365Z,-20551.25
2022-08-19T00:37:23.857Z,-20551.72
2022-08-19T00:39:51.902Z,-20549.13
2022-08-19T00:42:20.973Z,-20548.53
2022-08-19T00:44:48.873Z,-20549.59
2022-08-19T00:47:16.648Z,-20549.13
2022-08-19T00:49:51.613Z,-20550.97
2022-08-19T00:52:29.797Z,-20553.25
2022-08-19T00:54:59.123Z,-20553.09
2022-08-19T00:57:32.010Z,-20552.03
2022-08-19T01:00:03.302Z,-20553.09
2022-08-19T01:02:33.781Z,-20554.00
2022-08-19T01:05:03.483Z,-20553.53
2022-08-19T01:07:35.984Z,-20552.16
2022-08-19T01:10:08.918Z,-20549.13
2022-08-19T01:12:37.227Z,-20551.25
2022-08-19T01:15:05.837Z,-20551.41
2022-08-19T01:17:34.030Z,-20550.97
2022-08-19T01:20:01.977Z,-20550.34
2022-08-19T01:22:34.170Z,-20550.50
2022-08-19T01:25:02.578Z,-20550.34
2022-08-19T01:27:42.912Z,-20548.38
2022-08-19T01:30:14.932Z,-20549.13
2022-08-19T01:32:44.410Z,-20549.75
2022-08-19T01:35:13.833Z,-20551.56
2022-08-19T01:37:48.161Z,-20549.75
2022-08-19T01:40:16.847Z,-20553.38
2022-08-19T01:42:44.543Z,-20550.97
2022-08-19T01:45:12.313Z,-20548.22
2022-08-19T01:47:40.103Z,-20549.28
2022-08-19T01:50:10.951Z,-20548.84
2022-08-19T01:52:38.826Z,-20547.94
2022-08-19T01:55:10.877Z,-20547.63
2022-08-19T01:57:41.555Z,-20544.28
2022-08-19T02:00:13.228Z,-20542.75
2022-08-19T02:02:41.181Z,-20543.53
2022-08-19T02:05:13.499Z,-20540.34
2022-08-19T02:07:41.363Z,-20542.47
2022-08-19T02:10:13.848Z,-20542.75
2022-08-19T02:12:44.582Z,-20544.13
2022-08-19T02:15:13.050Z,-20543.38
2022-08-19T02:17:41.893Z,-20546.41
2022-08-19T02:20:11.195Z,-20546.09
2022-08-19T02:22:41.221Z,-20546.56
2022-08-19T02:25:10.822Z,-20547.78
2022-08-19T02:27:38.722Z,-20548.38
2022-08-19T02:30:09.103Z,-20546.41
2022-08-19T02:32:44.275Z,-20547.00
2022-08-19T02:35:14.315Z,-20555.81
2022-08-19T02:37:59.620Z,-20552.31
2022-08-19T02:40:29.075Z,-20547.47
2022-08-19T02:42:57.089Z,-20547.78
2022-08-19T02:45:24.886Z,-20546.25
2022-08-19T02:47:52.792Z,-20544.28
2022-08-19T02:50:20.723Z,-20542.75
2022-08-19T02:52:48.482Z,-20539.56
2022-08-19T02:55:16.274Z,-20540.63
2022-08-19T02:57:45.326Z,-20542.16
2022-08-19T03:00:13.894Z,-20539.72
2022-08-19T03:02:42.109Z,-20540.78
2022-08-19T03:05:11.353Z,-20540.78
2022-08-19T03:07:39.571Z,-20540.94
2022-08-19T03:10:08.909Z,-20542.47
2022-08-19T03:12:38.910Z,-20541.41
2022-08-19T03:15:10.594Z,-20542.31
2022-08-19T03:17:38.368Z,-20542.91
2022-08-19T03:20:07.064Z,-20541.25
2022-08-19T03:22:34.738Z,-20543.06
2022-08-19T03:25:02.446Z,-20544.59
2022-08-19T03:27:34.225Z,-20544.59
2022-08-19T03:30:02.711Z,-20543.97
2022-08-19T03:32:33.015Z,-20543.69
2022-08-19T03:35:01.101Z,-20543.38
2022-08-19T03:37:29.419Z,-20547.00
2022-08-19T03:39:57.094Z,-20546.88
2022-08-19T03:42:32.307Z,-20545.34
2022-08-19T03:45:08.519Z,-20546.41
2022-08-19T03:47:38.716Z,-20546.09
2022-08-19T03:50:07.329Z,-20550.06
2022-08-19T03:52:34.965Z,-20549.13
2022-08-19T03:55:02.663Z,-20553.09
2022-08-19T03:57:32.105Z,-20554.16
2022-08-19T04:00:13.256Z,-20551.13
2022-08-19T04:02:58.017Z,-20548.69
2022-08-19T04:05:29.406Z,-20545.66
2022-08-19T04:07:59.995Z,-20546.88
2022-08-19T04:10:28.655Z,-20545.81
2022-08-19T04:12:56.339Z,-20543.69
2022-08-19T04:15:24.124Z,-20543.38
2022-08-19T04:17:53.108Z,-20547.78
2022-08-19T04:20:20.733Z,-20547.47
2022-08-19T04:22:48.435Z,-20547.63
2022-08-19T04:25:16.066Z,-20547.00
2022-08-19T04:27:47.408Z,-20545.66
2022-08-19T04:30:16.310Z,-20548.53
2022-08-19T04:32:44.600Z,-20554.00
2022-08-19T04:35:16.986Z,-20553.53
2022-08-19T04:37:46.330Z,-20550.06
2022-08-19T04:40:31.798Z,-20549.13
2022-08-19T04:42:59.409Z,-20551.56
2022-08-19T04:45:27.123Z,-20550.34
2022-08-19T04:48:19.798Z,-20550.50
2022-08-19T04:50:47.184Z,-20546.72
2022-08-19T04:53:14.830Z,-20547.31
2022-08-19T04:55:43.839Z,-20547.78
2022-08-19T04:58:11.530Z,-20543.97
2022-08-19T05:00:40.371Z,-20548.53
2022-08-19T05:03:08.090Z,-20550.66
2022-08-19T05:05:44.771Z,-20549.44
2022-08-19T05:08:19.401Z,-20549.13
2022-08-19T05:10:59.254Z,-20550.66
2022-08-19T05:13:27.607Z,-20553.38
2022-08-19T05:15:56.938Z,-20552.16
2022-08-19T05:18:42.760Z,-20552.94
2022-08-19T05:21:29.052Z,-20556.41
2022-08-19T05:23:58.266Z,-20560.38
2022-08-19T05:26:26.882Z,-20559.59
2022-08-19T05:28:54.654Z,-20560.06
2022-08-19T05:31:23.245Z,-20558.09
2022-08-19T05:33:51.305Z,-20560.97
2022-08-19T05:36:20.594Z,-20563.25
2022-08-19T05:38:50.975Z,-20560.06
2022-08-19T05:41:20.510Z,-20561.44
2022-08-19T05:43:48.403Z,-20564.00
2022-08-19T05:46:19.965Z,-20564.16
2022-08-19T05:48:57.500Z,-20568.88
2022-08-19T05:51:29.006Z,-20570.69
2022-08-19T05:53:56.992Z,-20578.56
2022-08-19T05:56:26.206Z,-20575.06
2022-08-19T05:58:55.041Z,-20576.59
2022-08-19T06:01:23.142Z,-20574.31
2022-08-19T06:03:50.738Z,-20571.28
2022-08-19T06:06:19.094Z,-20572.34
2022-08-19T06:08:51.591Z,-20575.38
2022-08-19T06:11:22.933Z,-20573.41
2022-08-19T06:13:59.607Z,-20576.00
2022-08-19T06:16:29.145Z,-20577.03
2022-08-19T06:18:58.861Z,-20583.41
2022-08-19T06:21:29.590Z,-20581.28
2022-08-19T06:23:58.034Z,-20582.19
2022-08-19T06:26:26.151Z,-20581.75
2022-08-19T06:28:55.483Z,-20584.16
2022-08-19T06:31:26.669Z,-20586.44
2022-08-19T06:33:54.549Z,-20586.44
2022-08-19T06:36:28.432Z,-20588.56
2022-08-19T06:38:56.580Z,-20587.97
2022-08-19T06:41:24.620Z,-20585.84
2022-08-19T06:43:54.179Z,-20592.19
2022-08-19T06:46:26.195Z,-20592.06
2022-08-19T06:48:55.321Z,-20595.84
2022-08-19T06:51:24.787Z,-20600.84
2022-08-19T06:53:54.257Z,-20607.66
2022-08-19T06:56:34.510Z,-20614.94
2022-08-19T06:59:03.246Z,-20622.34
2022-08-19T07:01:32.530Z,-20622.50
2022-08-19T07:04:01.382Z,-20630.97
2022-08-19T07:06:44.842Z,-20635.34
2022-08-19T07:09:14.995Z,-20648.53
2022-08-19T07:11:48.195Z,-20653.34
2022-08-19T07:14:19.489Z,-20663.78
2022-08-19T07:16:50.425Z,-20667.56
2022-08-19T07:19:20.190Z,-20657.00
2022-08-19T07:21:49.560Z,-20660.03
2022-08-19T07:24:18.757Z,-20653.97
2022-08-19T07:26:46.712Z,-20654.28
2022-08-19T07:29:23.763Z,-20655.16
2022-08-19T07:31:57.175Z,-20653.50
2022-08-19T07:34:26.193Z,-20652.59
2022-08-19T07:36:55.444Z,-20654.56
2022-08-19T07:39:26.733Z,-20657.00
2022-08-19T07:41:54.672Z,-20653.97
2022-08-19T07:44:23.775Z,-20652.91
2022-08-19T07:46:57.934Z,-20655.31
2022-08-19T07:49:26.011Z,-20659.09
2022-08-19T07:51:56.675Z,-20668.47
2022-08-19T07:54:26.195Z,-20675.44
2022-08-19T07:56:53.849Z,-20690.53
2022-08-19T07:59:23.045Z,-20699.31
2022-08-19T08:01:51.805Z,-20708.97
2022-08-19T08:04:38.707Z,-20707.47
2022-08-19T08:07:25.799Z,-20707.47
2022-08-19T08:09:59.952Z,-20721.03
2022-08-19T08:12:35.586Z,-20723.75
2022-08-19T08:15:08.842Z,-20719.53
2022-08-19T08:17:49.455Z,-20742.31
2022-08-19T08:20:21.337Z,-20724.97
2022-08-19T08:23:07.266Z,-20729.94
2022-08-19T08:25:36.270Z,-20749.84
2022-08-19T08:28:04.958Z,-20743.38
2022-08-19T08:30:33.963Z,-20753.00
2022-08-19T08:33:02.506Z,-20750.75
2022-08-19T08:35:31.856Z,-20752.72
2022-08-19T08:38:00.064Z,-20755.72
2022-08-19T08:40:31.509Z,-20751.34
2022-08-19T08:43:11.767Z,-20752.13
2022-08-19T08:45:47.606Z,-20752.25
2022-08-19T08:48:26.751Z,-20755.13
2022-08-19T08:50:58.553Z,-20765.06
2022-08-19T08:53:29.581Z,-20750.91
2022-08-19T08:55:57.651Z,-20739.44
2022-08-19T08:58:30.175Z,-20748.66
2022-08-19T09:00:58.928Z,-20761.59
2022-08-19T09:03:31.578Z,-20762.66
2022-08-19T09:06:05.074Z,-20768.53
2022-08-19T09:08:49.920Z,-20778.94
2022-08-19T09:11:42.644Z,-20784.97
2022-08-19T09:14:49.352Z,-20777.44
2022-08-19T09:17:15.819Z,-20780.13
2022-08-19T09:19:53.493Z,-20783.16
2022-08-19T09:22:25.444Z,-20776.81
2022-08-19T09:24:54.549Z,-20774.88
2022-08-19T09:27:35.618Z,-20787.06
2022-08-19T09:30:14.374Z,-20776.53
2022-08-19T09:32:43.591Z,-20792.47
2022-08-19T09:35:12.141Z,-20793.53
2022-08-19T09:37:41.239Z,-20788.72
2022-08-19T09:40:12.677Z,-20792.19
2022-08-19T09:42:49.677Z,-20806.03
2022-08-19T09:45:22.754Z,-20787.38
2022-08-19T09:47:51.973Z,-20796.09
2022-08-19T09:50:22.436Z,-20807.84
2022-08-19T09:52:57.027Z,-20809.63
2022-08-19T09:55:31.223Z,-20795.81
2022-08-19T09:57:59.078Z,-20801.97
2022-08-19T10:00:27.669Z,-20827.69
2022-08-19T10:02:55.465Z,-20813.72
2022-08-19T10:05:42.295Z,-20814.16
2022-08-19T10:08:13.061Z,-20791.88
2022-08-19T10:10:44.066Z,-20806.03
2022-08-19T10:13:14.417Z,-20819.88
2022-08-19T10:15:47.780Z,-20825.59
2022-08-19T10:18:17.664Z,-20796.41
2022-08-19T10:20:46.349Z,-20781.19
2022-08-19T10:23:21.860Z,-20772.16
2022-08-19T10:25:50.736Z,-20773.81
2022-08-19T10:28:19.381Z,-20795.66
2022-08-19T10:30:47.938Z,-20795.94
2022-08-19T10:33:16.074Z,-20794.16
2022-08-19T10:36:05.526Z,-20792.78
2022-08-19T10:38:34.822Z,-20793.84
2022-08-19T10:41:09.297Z,-20772.31
2022-08-19T10:43:39.095Z,-20764.94
2022-08-19T10:46:09.460Z,-20758.75
2022-08-19T10:48:41.758Z,-20792.19
2022-08-19T10:51:28.248Z,-20819.28
2022-08-19T10:53:58.999Z,-20823.19
2022-08-19T10:56:45.678Z,-20806.63
2022-08-19T10:59:15.033Z,-20810.09
2022-08-19T11:01:44.313Z,-20802.13
2022-08-19T11:04:14.390Z,-20821.38
2022-08-19T11:06:44.330Z,-20834.91
2022-08-19T11:09:14.715Z,-20847.22
2022-08-19T11:11:42.775Z,-20834.31
2022-08-19T11:14:11.927Z,-20831.31
2022-08-19T11:16:40.355Z,-20817.47
2022-08-19T11:19:09.624Z,-20832.34
2022-08-19T11:21:39.635Z,-20823.78
2022-08-19T11:24:10.370Z,-20799.25
2022-08-19T11:26:40.951Z,-20790.38
2022-08-19T11:29:12.311Z,-20796.84
2022-08-19T11:31:42.299Z,-20822.56
2022-08-19T11:34:12.885Z,-20823.63
2022-08-19T11:36:42.289Z,-20802.56
2022-08-19T11:39:11.714Z,-20799.72
2022-08-19T11:41:41.350Z,-20815.06
2022-08-19T11:44:09.539Z,-20827.69
2022-08-19T11:46:38.516Z,-20852.03
2022-08-19T11:49:13.777Z,-20864.06
2022-08-19T11:51:42.926Z,-20861.03
2022-08-19T11:54:10.850Z,-20824.09
2022-08-19T11:56:40.926Z,-20836.84
2022-08-19T11:59:14.113Z,-20833.41
2022-08-19T12:01:43.598Z,-20848.28
2022-08-19T12:04:12.455Z,-20846.34
2022-08-19T12:06:42.049Z,-20844.22
2022-08-19T12:09:11.152Z,-20862.56
2022-08-19T12:11:41.407Z,-20875.47
2022-08-19T12:14:14.518Z,-20867.81
2022-08-19T12:16:51.031Z,-20861.50
2022-08-19T12:19:21.161Z,-20869.75
2022-08-19T12:21:51.140Z,-20893.78
2022-08-19T12:24:23.845Z,-20888.38
2022-08-19T12:26:54.171Z,-20871.56
2022-08-19T12:29:30.513Z,-20860.44
2022-08-19T12:32:02.031Z,-20859.69
2022-08-19T12:34:31.784Z,-20858.66
2022-08-19T12:36:59.723Z,-20885.38
2022-08-19T12:39:27.571Z,-20874.72
2022-08-19T12:41:56.554Z,-20863.75
2022-08-19T12:44:28.873Z,-20864.06
2022-08-19T12:46:57.682Z,-20884.47
2022-08-19T12:49:52.336Z,-20846.34
2022-08-19T12:52:16.114Z,-20869.75
2022-08-19T12:54:45.034Z,-20849.94
2022-08-19T12:57:14.526Z,-20861.97
2022-08-19T12:59:42.322Z,-20851.13
2022-08-19T13:02:10.138Z,-20851.75
2022-08-19T13:04:41.670Z,-20857.44
2022-08-19T13:07:10.000Z,-20840.63
2022-08-19T13:09:37.789Z,-20844.69
2022-08-19T13:12:08.583Z,-20847.84
2022-08-19T13:14:39.360Z,-20853.53
2022-08-19T13:17:06.967Z,-20851.44
2022-08-19T13:19:34.905Z,-20861.03
2022-08-19T13:22:02.606Z,-20848.75
2022-08-19T13:24:34.009Z,-20853.09
2022-08-19T13:27:01.768Z,-20855.94
2022-08-19T13:29:47.467Z,-20871.88
2022-08-19T13:32:33.834Z,-20875.47
2022-08-19T13:35:03.402Z,-20888.38
2022-08-19T13:37:43.303Z,-20872.75
2022-08-19T13:40:13.740Z,-20861.97
2022-08-19T13:42:42.302Z,-20849.78
2022-08-19T13:45:11.474Z,-20853.25
2022-08-19T13:47:45.349Z,-20843.16
2022-08-19T13:50:14.481Z,-20843.31
2022-08-19T13:52:42.526Z,-20829.94
2022-08-19T13:55:12.809Z,-20840.47
2022-08-19T13:57:40.889Z,-20836.84
2022-08-19T14:00:11.906Z,-20835.81
2022-08-19T14:02:41.945Z,-20829.03
2022-08-19T14:05:13.051Z,-20835.22
2022-08-19T14:07:41.521Z,-20829.94
2022-08-19T14:10:12.530Z,-20821.81
2022-08-19T14:12:41.197Z,-20817.91
2022-08-19T14:15:11.971Z,-20812.50
2022-08-19T14:17:42.484Z,-20809.34
2022-08-19T14:20:16.892Z,-20814.91
2022-08-19T14:22:47.560Z,-20814.00
2022-08-19T14:25:18.230Z,-20818.66
2022-08-19T14:27:46.881Z,-20822.56
2022-08-19T14:30:17.605Z,-20828.59
2022-08-19T14:32:46.715Z,-20830.69
2022-08-19T14:35:16.118Z,-20831.91
2022-08-19T14:37:46.206Z,-20823.47
2022-08-19T14:40:15.592Z,-20824.09
2022-08-19T14:42:44.023Z,-20826.78
2022-08-19T14:45:13.682Z,-20830.69
2022-08-19T14:47:41.625Z,-20832.34
2022-08-19T14:50:18.078Z,-20834.91
2022-08-19T14:52:46.335Z,-20821.38
2022-08-19T14:55:14.081Z,-20828.59
2022-08-19T14:57:43.438Z,-20825.59
2022-08-19T15:00:13.924Z,-20820.78
2022-08-19T15:02:41.725Z,-20820.78
2022-08-19T15:05:11.025Z,-20823.78
2022-08-19T15:07:39.199Z,-20812.34
2022-08-19T15:10:09.310Z,-20821.97
2022-08-19T15:12:38.347Z,-20811.16
2022-08-19T15:15:07.096Z,-20821.97
2022-08-19T15:17:45.864Z,-20826.03
2022-08-19T15:20:19.029Z,-20830.84
2022-08-19T15:22:47.351Z,-20840.16
2022-08-19T15:25:19.388Z,-20833.09
2022-08-19T15:27:47.361Z,-20841.38
2022-08-19T15:30:21.752Z,-20824.69
2022-08-19T15:32:49.837Z,-20846.19
2022-08-19T15:35:20.542Z,-20835.22
2022-08-19T15:37:50.906Z,-20848.00
2022-08-19T15:40:19.739Z,-20855.34
2022-08-19T15:42:49.788Z,-20849.34
2022-08-19T15:45:18.992Z,-20856.84
2022-08-19T15:47:47.595Z,-20854.16
2022-08-19T15:50:18.508Z,-20838.50
2022-08-19T15:52:50.513Z,-20850.25
2022-08-19T15:55:32.295Z,-20852.63
2022-08-19T15:58:24.135Z,-20846.34
2022-08-19T16:01:14.776Z,-20827.84
2022-08-19T16:04:00.110Z,-20822.28
2022-08-19T16:06:27.877Z,-20824.38
2022-08-19T16:08:58.824Z,-20823.19
2022-08-19T16:11:29.605Z,-20827.38
2022-08-19T16:13:59.145Z,-20824.38
2022-08-19T16:16:31.023Z,-20824.38
2022-08-19T16:19:10.275Z,-20831.59
2022-08-19T16:21:41.427Z,-20833.72
2022-08-19T16:24:13.093Z,-20831.31
2022-08-19T16:26:41.950Z,-20838.22
2022-08-19T16:29:12.098Z,-20831.59
2022-08-19T16:31:41.991Z,-20832.34
2022-08-19T16:34:09.795Z,-20835.97
2022-08-19T16:36:41.981Z,-20833.09
2022-08-19T16:39:13.134Z,-20823.19
2022-08-19T16:41:42.334Z,-20817.16
2022-08-19T16:44:12.487Z,-20817.00
2022-08-19T16:46:41.581Z,-20818.53
2022-08-19T16:49:10.569Z,-20816.25
2022-08-19T16:51:38.608Z,-20811.75
2022-08-19T16:54:07.281Z,-20806.19
2022-08-19T16:56:36.907Z,-20806.03
2022-08-19T16:59:04.990Z,-20799.13
2022-08-19T17:01:33.185Z,-20800.16
2022-08-19T17:04:00.838Z,-20803.31
2022-08-19T17:06:31.002Z,-20806.78
2022-08-19T17:09:00.878Z,-20801.97
2022-08-19T17:11:30.147Z,-20799.72
2022-08-19T17:13:59.453Z,-20802.41
2022-08-19T17:16:29.090Z,-20803.03
2022-08-19T17:18:59.066Z,-20797.59
2022-08-19T17:21:29.565Z,-20797.59
2022-08-19T17:23:58.102Z,-20798.50
2022-08-19T17:26:26.997Z,-20793.25
2022-08-19T17:28:56.957Z,-20787.81
2022-08-19T17:31:28.949Z,-20789.94
2022-08-19T17:33:58.201Z,-20792.19
2022-08-19T17:36:28.214Z,-20787.66
2022-08-19T17:38:57.020Z,-20792.19
2022-08-19T17:41:25.863Z,-20796.72
2022-08-19T17:43:54.393Z,-20794.91
2022-08-19T17:46:22.143Z,-20793.09
2022-08-19T17:48:55.175Z,-20795.66
2022-08-19T17:51:25.094Z,-20795.81
2022-08-19T17:53:54.092Z,-20791.13
2022-08-19T17:56:23.548Z,-20792.78
2022-08-19T17:58:59.628Z,-20788.88
2022-08-19T18:01:44.157Z,-20787.06
2022-08-19T18:04:19.904Z,-20786.31
2022-08-19T18:06:53.036Z,-20782.69
2022-08-19T18:09:24.450Z,-20786.00
2022-08-19T18:11:53.842Z,-20785.72
2022-08-19T18:14:28.116Z,-20776.81
2022-08-19T18:17:00.315Z,-20774.88
2022-08-19T18:19:40.812Z,-20773.81
2022-08-19T18:22:11.534Z,-20766.28
2022-08-19T18:24:39.876Z,-20765.38
2022-08-19T18:27:07.991Z,-20760.84
2022-08-19T18:29:37.478Z,-20757.25
2022-08-19T18:32:06.002Z,-20751.34
2022-08-19T18:34:37.295Z,-20749.25
2022-08-19T18:37:05.533Z,-20740.06
2022-08-19T18:39:50.864Z,-20735.81
2022-08-19T18:42:37.255Z,-20734.00
2022-08-19T18:45:22.860Z,-20737.03
2022-08-19T18:48:08.188Z,-20739.16
2022-08-19T18:50:56.631Z,-20737.94
2022-08-19T18:53:25.227Z,-20735.06
2022-08-19T18:55:55.415Z,-20734.63
2022-08-19T18:58:26.463Z,-20729.66
2022-08-19T19:00:57.199Z,-20730.56
2022-08-19T19:03:26.100Z,-20725.25
2022-08-19T19:05:55.256Z,-20725.41
2022-08-19T19:08:26.904Z,-20722.84
2022-08-19T19:10:55.876Z,-20721.34
2022-08-19T19:13:23.538Z,-20722.09
2022-08-19T19:15:51.789Z,-20717.28
2022-08-19T19:18:19.713Z,-20716.06
2022-08-19T19:20:47.377Z,-20712.44
2022-08-19T19:23:16.385Z,-20712.44
2022-08-19T19:25:50.464Z,-20709.72
2022-08-19T19:28:23.884Z,-20706.25
2022-08-19T19:30:52.457Z,-20704.59
2022-08-19T19:33:20.667Z,-20705.03
2022-08-19T19:35:48.466Z,-20702.94
2022-08-19T19:38:17.419Z,-20699.91
2022-08-19T19:40:45.557Z,-20699.59
2022-08-19T19:43:13.395Z,-20697.19
2022-08-19T19:45:41.162Z,-20692.50
2022-08-19T19:48:13.650Z,-20691.31
2022-08-19T19:50:41.785Z,-20695.06
2022-08-19T19:53:09.599Z,-20691.16
2022-08-19T19:55:41.123Z,-20687.53
2022-08-19T19:58:09.562Z,-20684.81
2022-08-19T20:00:37.431Z,-20685.72
2022-08-19T20:03:06.342Z,-20684.19
2022-08-19T20:05:34.093Z,-20681.19
2022-08-19T20:08:19.592Z,-20680.72
2022-08-19T20:10:48.834Z,-20680.13
2022-08-19T20:13:16.475Z,-20680.56
2022-08-19T20:15:44.431Z,-20677.69
2022-08-19T20:18:14.220Z,-20675.44
2022-08-19T20:20:42.168Z,-20672.72
2022-08-19T20:23:10.156Z,-20670.75
2022-08-19T20:25:39.784Z,-20668.47
2022-08-19T20:28:09.142Z,-20666.97
2022-08-19T20:30:39.043Z,-20664.84
2022-08-19T20:33:14.570Z,-20661.06
2022-08-19T20:35:43.986Z,-20661.38
2022-08-19T20:38:11.915Z,-20659.56
2022-08-19T20:40:41.117Z,-20657.44
2022-08-19T20:43:12.956Z,-20655.16
2022-08-19T20:45:41.143Z,-20657.13
2022-08-19T20:48:12.102Z,-20655.47
2022-08-19T20:50:40.166Z,-20653.66
2022-08-19T20:53:13.035Z,-20651.84
2022-08-19T20:55:41.147Z,-20654.56
2022-08-19T20:58:12.639Z,-20654.56
2022-08-19T21:00:40.661Z,-20654.56
2022-08-19T21:03:08.383Z,-20653.97
2022-08-19T21:05:36.062Z,-20653.22
2022-08-19T21:08:04.529Z,-20650.63
2022-08-19T21:10:32.331Z,-20649.44
2022-08-19T21:12:59.986Z,-20645.50
2022-08-19T21:15:29.038Z,-20642.63
2022-08-19T21:17:56.990Z,-20639.00
2022-08-19T21:20:24.890Z,-20636.41
2022-08-19T21:22:52.563Z,-20634.59
2022-08-19T21:25:20.186Z,-20632.47
2022-08-19T21:27:47.823Z,-20627.78
2022-08-19T21:30:15.635Z,-20622.66
2022-08-19T21:32:45.859Z,-20623.84
2022-08-19T21:35:15.861Z,-20619.78
2022-08-19T21:37:43.766Z,-20614.31
2022-08-19T21:40:12.390Z,-20613.09
2022-08-19T21:42:40.297Z,-20609.31
2022-08-19T21:45:09.229Z,-20606.75
2022-08-19T21:47:37.031Z,-20607.97
2022-08-19T21:50:07.454Z,-20606.59
2022-08-19T21:52:35.125Z,-20604.00
2022-08-19T21:55:02.867Z,-20602.50
2022-08-19T21:57:30.758Z,-20602.34
2022-08-19T21:59:58.471Z,-20602.50
2022-08-19T22:02:27.334Z,-20600.38
2022-08-19T22:04:55.650Z,-20599.31
2022-08-19T22:07:25.067Z,-20599.16
2022-08-19T22:09:52.755Z,-20596.91
2022-08-19T22:12:24.205Z,-20592.19
2022-08-19T22:14:53.023Z,-20589.47
2022-08-19T22:17:22.325Z,-20590.22
2022-08-19T22:19:50.885Z,-20585.69
2022-08-19T22:22:21.399Z,-20582.94
2022-08-19T22:24:50.595Z,-20579.78
2022-08-19T22:27:18.361Z,-20575.22
2022-08-19T22:29:46.043Z,-20573.09
2022-08-19T22:32:28.135Z,-20573.41
2022-08-19T22:34:58.604Z,-20571.75
2022-08-19T22:37:26.986Z,-20567.94
2022-08-19T22:39:56.425Z,-20570.06
2022-08-19T22:42:25.245Z,-20569.78
2022-08-19T22:44:58.813Z,-20568.88
2022-08-19T22:47:27.167Z,-20571.91
2022-08-19T22:49:58.095Z,-20567.19
2022-08-19T22:52:24.819Z,-20568.88
2022-08-19T22:54:54.738Z,-20568.88
2022-08-19T22:57:24.378Z,-20564.31
2022-08-19T22:59:53.606Z,-20563.41
2022-08-19T23:02:26.727Z,-20562.78
2022-08-19T23:04:54.661Z,-20560.97
2022-08-19T23:07:23.995Z,-20563.09
2022-08-19T23:09:51.761Z,-20564.00
2022-08-19T23:12:30.715Z,-20562.50
2022-08-19T23:15:03.104Z,-20562.50
2022-08-19T23:17:30.986Z,-20566.44
2022-08-19T23:20:00.028Z,-20563.56
2022-08-19T23:22:30.327Z,-20560.66
2022-08-19T23:25:02.915Z,-20556.56
2022-08-19T23:27:49.242Z,-20555.81
2022-08-19T23:30:29.097Z,-20552.47
2022-08-19T23:32:58.766Z,-20552.16
2022-08-19T23:35:27.380Z,-20551.56
2022-08-19T23:37:55.225Z,-20552.78
2022-08-19T23:40:23.082Z,-20553.09
2022-08-19T23:42:52.503Z,-20555.22
2022-08-19T23:45:23.679Z,-20557.94
2022-08-19T23:47:53.388Z,-20559.16
2022-08-19T23:50:21.608Z,-20559.75
2022-08-19T23:52:52.560Z,-20557.94
2022-08-19T23:55:22.235Z,-20561.28
2022-08-19T23:57:50.167Z,-20564.31
